Time;durP1;ratioP1;P1;durP2;ratioP2;P2;SDS_P1;SDS_P2;PMS_P1;PMS_P2;Temp;Humidity;BMP_temperature;BMP_pressure;BME280_temperature;BME280_humidity;BME280_pressure;Samples;Min_cycle;Max_cycle;Signal;HPM_P1;HPM_P2
2021/09/07 00:01:40;;;;;;;14.23;8.53;;;16.10;99.90;;;;;;5033095;28;20173;-71
2021/09/07 00:04:06;;;;;;;11.27;9.20;;;16.10;99.90;;;;;;5032382;28;20238;-71
2021/09/07 00:06:31;;;;;;;10.97;8.00;;;16.10;99.90;;;;;;5032406;28;20675;-71
2021/09/07 00:08:57;;;;;;;12.80;8.87;;;16.10;99.90;;;;;;5031701;28;20231;-71
2021/09/07 00:11:22;;;;;;;12.80;9.40;;;16.00;99.90;;;;;;5032587;28;20153;-71
2021/09/07 00:13:48;;;;;;;12.63;8.57;;;16.00;99.90;;;;;;5032550;28;20164;-71
2021/09/07 00:16:14;;;;;;;14.43;9.97;;;16.00;99.90;;;;;;5032347;28;20153;-71
2021/09/07 00:18:39;;;;;;;14.43;9.83;;;16.00;99.90;;;;;;5013947;28;20558;-71
2021/09/07 00:21:05;;;;;;;14.57;9.70;;;16.00;99.90;;;;;;5028844;28;20209;-71
2021/09/07 00:23:30;;;;;;;16.30;9.30;;;16.00;99.90;;;;;;5032084;28;20169;-71
2021/09/07 00:25:56;;;;;;;15.17;10.90;;;16.00;99.90;;;;;;5032107;28;20252;-71
2021/09/07 00:28:21;;;;;;;12.63;8.20;;;15.90;99.90;;;;;;5032178;28;20165;-71
2021/09/07 00:30:47;;;;;;;13.43;9.53;;;15.90;99.90;;;;;;5029368;28;20195;-71
2021/09/07 00:33:12;;;;;;;15.53;10.30;;;15.90;99.90;;;;;;5032143;28;20613;-71
2021/09/07 00:35:38;;;;;;;13.93;10.30;;;15.90;99.90;;;;;;5032391;28;20176;-71
2021/09/07 00:38:04;;;;;;;11.70;8.67;;;15.90;99.90;;;;;;5031840;28;20196;-71
2021/09/07 00:40:30;;;;;;;12.10;8.77;;;15.80;99.90;;;;;;5032330;28;20189;-71
2021/09/07 00:42:55;;;;;;;14.07;9.97;;;15.80;99.90;;;;;;5032307;28;20473;-71
2021/09/07 00:45:21;;;;;;;13.10;9.20;;;15.80;99.90;;;;;;5032256;28;20181;-71
2021/09/07 00:47:46;;;;;;;17.23;11.57;;;15.80;99.90;;;;;;5032133;28;20161;-71
2021/09/07 00:50:13;;;;;;;13.97;9.73;;;15.80;99.90;;;;;;5032187;28;20523;-71
2021/09/07 00:52:39;;;;;;;13.50;9.60;;;15.80;99.90;;;;;;5032113;28;20634;-71
2021/09/07 00:55:05;;;;;;;12.53;9.70;;;15.80;99.90;;;;;;5031857;28;20427;-71
2021/09/07 00:57:32;;;;;;;14.67;9.20;;;15.70;99.90;;;;;;5031819;28;20482;-71
2021/09/07 00:59:58;;;;;;;13.97;9.40;;;15.70;99.90;;;;;;5043098;28;20636;-71
2021/09/07 01:02:23;;;;;;;13.70;9.20;;;15.70;99.90;;;;;;5012268;28;20416;-71
2021/09/07 01:04:49;;;;;;;13.63;9.63;;;15.70;99.90;;;;;;5012460;28;20389;-71
2021/09/07 01:07:17;;;;;;;15.10;9.80;;;15.70;99.90;;;;;;5012118;28;20168;-71
2021/09/07 01:09:42;;;;;;;17.63;9.67;;;15.60;99.90;;;;;;5012522;28;20607;-71
2021/09/07 01:12:08;;;;;;;16.03;10.77;;;15.60;99.90;;;;;;5030223;28;20429;-71
2021/09/07 01:14:37;;;;;;;14.30;9.13;;;15.60;99.90;;;;;;5031956;28;20161;-71
2021/09/07 01:17:08;;;;;;;17.30;11.10;;;15.60;99.90;;;;;;5026776;28;20483;-71
2021/09/07 01:19:34;;;;;;;12.60;9.10;;;15.60;99.90;;;;;;5013964;28;20858;-71
2021/09/07 01:21:59;;;;;;;13.67;9.10;;;15.60;99.90;;;;;;5031006;28;20901;-71
2021/09/07 01:24:26;;;;;;;12.67;9.60;;;15.50;99.90;;;;;;5032531;28;20218;-71
2021/09/07 01:26:53;;;;;;;16.00;9.60;;;15.50;99.90;;;;;;5032825;28;20637;-71
2021/09/07 01:29:19;;;;;;;19.33;9.90;;;15.50;99.90;;;;;;5024584;28;20971;-71
2021/09/07 01:31:44;;;;;;;13.00;9.20;;;15.50;99.90;;;;;;5035327;28;20403;-71
2021/09/07 01:34:19;;;;;;;15.30;9.60;;;15.50;99.90;;;;;;5035322;28;20204;-71
2021/09/07 01:36:45;;;;;;;13.90;9.07;;;15.40;99.90;;;;;;5035292;28;20157;-71
2021/09/07 01:39:10;;;;;;;14.10;9.40;;;15.40;99.90;;;;;;5035330;28;20803;-71
2021/09/07 01:41:36;;;;;;;13.47;9.43;;;15.40;99.90;;;;;;5035297;28;20567;-71
2021/09/07 01:44:01;;;;;;;13.73;9.83;;;15.40;99.90;;;;;;5035061;28;20271;-71
2021/09/07 01:46:27;;;;;;;14.47;10.57;;;15.40;99.90;;;;;;5020681;28;20359;-71
2021/09/07 01:48:53;;;;;;;11.57;9.03;;;15.40;99.90;;;;;;5021684;28;20166;-71
2021/09/07 01:51:18;;;;;;;13.90;10.93;;;15.40;99.90;;;;;;5028489;28;20181;-71
2021/09/07 01:53:44;;;;;;;15.20;10.90;;;15.40;99.90;;;;;;5035254;28;20207;-71
2021/09/07 01:56:09;;;;;;;16.17;10.73;;;15.30;99.90;;;;;;5035762;28;20172;-71
2021/09/07 01:58:35;;;;;;;14.70;10.70;;;15.30;99.90;;;;;;5034468;28;20207;-71
2021/09/07 02:01:00;;;;;;;13.70;10.00;;;15.30;99.90;;;;;;5034198;28;20208;-71
2021/09/07 02:03:26;;;;;;;16.40;9.00;;;15.30;99.90;;;;;;5034564;28;20185;-71
2021/09/07 02:05:51;;;;;;;13.93;8.83;;;15.30;99.90;;;;;;5035106;28;20191;-71
2021/09/07 02:08:17;;;;;;;12.23;8.43;;;15.30;99.90;;;;;;5035188;28;20191;-71
2021/09/07 02:10:42;;;;;;;18.87;11.90;;;15.30;99.90;;;;;;5034837;28;20153;-71
2021/09/07 02:13:08;;;;;;;14.43;8.80;;;15.20;99.90;;;;;;5034549;28;20263;-71
2021/09/07 02:15:33;;;;;;;14.10;9.87;;;15.20;99.90;;;;;;5034282;28;20264;-71
2021/09/07 02:17:59;;;;;;;16.30;10.30;;;15.20;99.90;;;;;;5033502;28;20582;-71
2021/09/07 02:20:25;;;;;;;13.77;10.13;;;15.20;99.90;;;;;;5034286;28;20232;-71
2021/09/07 02:22:50;;;;;;;14.20;9.60;;;15.20;99.90;;;;;;5042513;28;20180;-71
2021/09/07 02:25:16;;;;;;;17.40;9.80;;;15.10;99.90;;;;;;5035126;28;20188;-68
2021/09/07 02:27:41;;;;;;;13.67;9.53;;;15.10;99.90;;;;;;5026244;28;20594;-68
2021/09/07 02:30:08;;;;;;;14.50;9.97;;;15.10;99.90;;;;;;5020379;28;20180;-68
2021/09/07 02:32:33;;;;;;;13.10;9.30;;;15.10;99.90;;;;;;5052622;28;20181;-68
2021/09/07 02:34:59;;;;;;;14.00;9.30;;;15.10;99.90;;;;;;5034078;28;20801;-69
2021/09/07 02:37:24;;;;;;;12.53;8.73;;;15.10;99.90;;;;;;5019515;28;20247;-68
2021/09/07 02:39:50;;;;;;;13.30;8.67;;;15.10;99.90;;;;;;5034021;28;20549;-68
2021/09/07 02:42:15;;;;;;;12.20;9.57;;;15.10;99.90;;;;;;5034102;28;20153;-68
2021/09/07 02:44:41;;;;;;;14.50;9.97;;;15.10;99.90;;;;;;5034204;28;20171;-68
2021/09/07 02:47:07;;;;;;;14.83;9.63;;;15.10;99.90;;;;;;5033994;28;20160;-68
2021/09/07 02:49:32;;;;;;;14.27;9.70;;;15.00;99.90;;;;;;5015657;28;20526;-71
2021/09/07 02:51:58;;;;;;;14.63;10.90;;;15.00;99.90;;;;;;5014445;28;20169;-71
2021/09/07 02:54:25;;;;;;;16.30;10.23;;;15.00;99.90;;;;;;5033890;28;20642;-71
2021/09/07 02:56:51;;;;;;;14.03;9.67;;;15.00;99.90;;;;;;5033017;28;20168;-71
2021/09/07 02:59:16;;;;;;;15.10;10.70;;;15.00;99.90;;;;;;5033469;28;20578;-71
2021/09/07 03:01:42;;;;;;;15.23;11.47;;;15.00;99.90;;;;;;5046765;28;20892;-71
2021/09/07 03:04:08;;;;;;;16.23;10.40;;;15.00;99.90;;;;;;5054279;28;20216;-71
2021/09/07 03:06:33;;;;;;;16.93;10.30;;;15.00;99.90;;;;;;5053715;28;20167;-71
2021/09/07 03:08:59;;;;;;;12.53;9.00;;;15.00;99.90;;;;;;5052867;28;20156;-71
2021/09/07 03:11:24;;;;;;;12.20;8.83;;;15.10;99.90;;;;;;5033542;28;20642;-71
2021/09/07 03:13:50;;;;;;;15.30;10.50;;;15.10;99.90;;;;;;5033417;28;20238;-71
2021/09/07 03:16:16;;;;;;;15.67;10.90;;;15.10;99.90;;;;;;5033365;28;20160;-71
2021/09/07 03:18:41;;;;;;;17.17;9.90;;;15.10;99.90;;;;;;5026467;28;20200;-71
2021/09/07 03:21:07;;;;;;;17.93;10.90;;;15.10;99.90;;;;;;5013507;28;20204;-71
2021/09/07 03:23:32;;;;;;;14.27;9.50;;;15.20;99.90;;;;;;5013738;28;20186;-71
2021/09/07 03:25:58;;;;;;;14.90;11.10;;;15.20;99.90;;;;;;5044594;28;20176;-71
2021/09/07 03:28:23;;;;;;;16.07;9.97;;;15.20;99.90;;;;;;5038184;28;20185;-71
2021/09/07 03:30:51;;;;;;;15.33;10.00;;;15.20;99.90;;;;;;5032058;28;20224;-71
2021/09/07 03:33:17;;;;;;;16.10;10.40;;;15.20;99.90;;;;;;5033436;28;20192;-71
2021/09/07 03:35:43;;;;;;;16.93;11.03;;;15.20;99.90;;;;;;5033197;28;20391;-71
2021/09/07 03:38:08;;;;;;;15.30;9.87;;;15.20;99.90;;;;;;5032959;28;20429;-71
2021/09/07 03:40:34;;;;;;;15.23;10.27;;;15.20;99.90;;;;;;5032870;28;20725;-71
2021/09/07 03:42:59;;;;;;;14.83;10.57;;;15.20;99.90;;;;;;5032788;28;20148;-71
2021/09/07 03:45:25;;;;;;;14.23;9.93;;;15.20;99.90;;;;;;5032815;28;20173;-71
2021/09/07 03:47:51;;;;;;;13.97;10.40;;;15.20;99.90;;;;;;5032803;28;20211;-71
2021/09/07 03:50:17;;;;;;;16.50;10.10;;;15.20;99.90;;;;;;5032483;28;20213;-71
2021/09/07 03:52:42;;;;;;;12.43;7.90;;;15.20;99.90;;;;;;5032951;28;20157;-71
2021/09/07 03:55:09;;;;;;;13.47;9.83;;;15.20;99.90;;;;;;5040522;28;20168;-71
2021/09/07 03:57:34;;;;;;;14.40;9.73;;;15.20;99.90;;;;;;5035621;28;20219;-71
2021/09/07 04:00:00;;;;;;;14.57;10.40;;;15.20;99.90;;;;;;5015861;28;20852;-71
2021/09/07 04:02:26;;;;;;;13.47;10.50;;;15.30;99.90;;;;;;5031919;28;20226;-71
2021/09/07 04:04:52;;;;;;;16.10;10.87;;;15.30;99.90;;;;;;5032574;28;20157;-71
2021/09/07 04:07:18;;;;;;;16.37;10.63;;;15.30;99.90;;;;;;5032710;28;20414;-71
2021/09/07 04:09:44;;;;;;;20.00;11.73;;;15.30;99.90;;;;;;5032640;28;20396;-71
2021/09/07 04:12:09;;;;;;;16.33;10.13;;;15.30;99.90;;;;;;5032789;28;20542;-71
2021/09/07 04:14:35;;;;;;;16.40;10.70;;;15.30;99.90;;;;;;5032567;28;20157;-71
2021/09/07 04:17:02;;;;;;;15.10;10.13;;;15.30;99.90;;;;;;5032072;28;20351;-71
2021/09/07 04:19:28;;;;;;;14.63;9.60;;;15.30;99.90;;;;;;5031940;28;20219;-71
2021/09/07 04:21:53;;;;;;;13.00;9.70;;;15.30;99.90;;;;;;5028938;28;20988;-71
2021/09/07 04:24:19;;;;;;;16.37;11.00;;;15.30;99.90;;;;;;5032762;28;20168;-71
2021/09/07 04:26:45;;;;;;;13.77;9.77;;;15.30;99.90;;;;;;5031275;28;20168;-71
2021/09/07 04:29:10;;;;;;;16.70;10.20;;;15.40;99.90;;;;;;5028169;28;20185;-71
2021/09/07 04:31:36;;;;;;;14.80;9.83;;;15.40;99.90;;;;;;5028933;28;20180;-71
2021/09/07 04:34:02;;;;;;;19.87;10.33;;;15.40;99.90;;;;;;5031771;28;20516;-71
2021/09/07 04:36:28;;;;;;;11.90;9.23;;;15.40;99.90;;;;;;5031502;28;20687;-71
2021/09/07 04:38:53;;;;;;;13.27;9.83;;;15.40;99.90;;;;;;5030421;28;20415;-71
2021/09/07 04:41:19;;;;;;;16.03;10.90;;;15.40;99.90;;;;;;5032151;28;20177;-71
2021/09/07 04:43:45;;;;;;;12.97;9.50;;;15.40;99.90;;;;;;5032024;28;20184;-71
2021/09/07 04:46:10;;;;;;;13.53;9.83;;;15.50;99.90;;;;;;5032084;28;20172;-71
2021/09/07 04:48:36;;;;;;;15.43;9.83;;;15.50;99.90;;;;;;5031822;28;20169;-71
2021/09/07 04:51:01;;;;;;;13.83;9.77;;;15.50;99.90;;;;;;5031860;28;20172;-71
2021/09/07 04:53:27;;;;;;;16.43;10.37;;;15.50;99.90;;;;;;5016280;28;20193;-71
2021/09/07 04:55:52;;;;;;;14.97;9.40;;;15.50;99.90;;;;;;5031529;28;20180;-71
2021/09/07 04:58:18;;;;;;;16.40;11.07;;;15.50;99.90;;;;;;5024598;28;20185;-71
2021/09/07 05:00:43;;;;;;;15.30;10.30;;;15.60;99.90;;;;;;5028790;28;20211;-71
2021/09/07 05:03:09;;;;;;;14.00;9.53;;;15.60;99.90;;;;;;5034859;28;20165;-71
2021/09/07 05:05:35;;;;;;;12.93;8.63;;;15.60;99.90;;;;;;5034510;28;20638;-71
2021/09/07 05:08:00;;;;;;;16.47;11.13;;;15.60;99.90;;;;;;5032642;28;20186;-71
2021/09/07 05:10:26;;;;;;;12.73;9.00;;;15.60;99.90;;;;;;5034410;28;20268;-71
2021/09/07 05:12:52;;;;;;;12.60;10.00;;;15.60;99.90;;;;;;5033515;28;20185;-71
2021/09/07 05:15:18;;;;;;;12.40;10.00;;;15.60;99.90;;;;;;5035192;28;20465;-71
2021/09/07 05:17:44;;;;;;;14.83;8.93;;;15.60;99.90;;;;;;5034663;28;20291;-71
2021/09/07 05:20:11;;;;;;;14.93;10.47;;;15.60;99.90;;;;;;5035661;28;20620;-71
2021/09/07 05:22:36;;;;;;;11.87;8.50;;;15.70;99.90;;;;;;5035077;28;20434;-71
2021/09/07 05:25:05;;;;;;;11.23;9.47;;;15.70;99.90;;;;;;5034974;28;20427;-71
2021/09/07 05:27:31;;;;;;;13.83;9.20;;;15.70;99.90;;;;;;5032012;28;20447;-71
2021/09/07 05:29:57;;;;;;;13.20;8.80;;;15.70;99.90;;;;;;5033270;28;21605;-71
2021/09/07 05:32:23;;;;;;;12.90;9.63;;;15.70;99.90;;;;;;5034809;28;20778;-71
2021/09/07 05:34:48;;;;;;;13.37;10.30;;;15.70;99.90;;;;;;5033751;28;20256;-71
2021/09/07 05:37:14;;;;;;;13.73;10.37;;;15.80;99.90;;;;;;5033961;28;20189;-71
2021/09/07 05:39:40;;;;;;;13.27;10.33;;;15.80;99.90;;;;;;5032046;28;20287;-71
2021/09/07 05:42:05;;;;;;;16.80;10.37;;;15.80;99.90;;;;;;5041785;28;20180;-71
2021/09/07 05:44:31;;;;;;;16.60;14.07;;;15.80;99.90;;;;;;5034717;28;20238;-71
2021/09/07 05:46:58;;;;;;;13.33;9.07;;;15.90;99.90;;;;;;5033085;28;20173;-71
2021/09/07 05:49:23;;;;;;;16.40;9.70;;;15.90;99.90;;;;;;5029940;28;20226;-71
2021/09/07 05:51:49;;;;;;;18.30;11.10;;;15.90;99.90;;;;;;5028063;28;20423;-71
2021/09/07 05:54:14;;;;;;;15.17;9.23;;;16.00;99.90;;;;;;5031391;28;20176;-71
2021/09/07 05:56:40;;;;;;;19.97;11.00;;;16.00;99.90;;;;;;5030468;28;20267;-71
2021/09/07 05:59:05;;;;;;;16.80;11.83;;;16.00;99.90;;;;;;5033952;28;20204;-71
2021/09/07 06:01:31;;;;;;;18.90;11.80;;;16.10;99.90;;;;;;5032225;28;20185;-71
2021/09/07 06:03:56;;;;;;;16.17;11.20;;;16.10;99.90;;;;;;5030423;28;20196;-71
2021/09/07 06:06:23;;;;;;;15.40;10.57;;;16.20;99.90;;;;;;5030803;28;20527;-71
2021/09/07 06:08:48;;;;;;;14.37;10.40;;;16.20;99.90;;;;;;5027348;28;20270;-71
2021/09/07 06:11:16;;;;;;;16.03;11.47;;;16.20;99.90;;;;;;5014777;28;20440;-71
2021/09/07 06:13:41;;;;;;;16.50;11.23;;;16.30;99.90;;;;;;5032304;28;20185;-71
2021/09/07 06:16:07;;;;;;;14.53;10.63;;;16.30;99.90;;;;;;5034211;28;20495;-71
2021/09/07 06:18:33;;;;;;;15.00;10.53;;;16.30;99.90;;;;;;5031117;28;20598;-71
2021/09/07 06:20:58;;;;;;;14.00;9.87;;;16.30;99.90;;;;;;5017571;28;20204;-71
2021/09/07 06:23:24;;;;;;;11.90;8.87;;;16.30;99.90;;;;;;5026108;28;20169;-71
2021/09/07 06:25:50;;;;;;;16.47;9.80;;;16.30;99.90;;;;;;5029401;28;20283;-71
2021/09/07 06:28:15;;;;;;;15.37;10.47;;;16.40;99.90;;;;;;5032598;28;20187;-71
2021/09/07 06:30:41;;;;;;;14.37;10.77;;;16.50;99.90;;;;;;5024519;28;20188;-71
2021/09/07 06:33:06;;;;;;;16.43;10.03;;;16.60;99.90;;;;;;5031032;28;20210;-71
2021/09/07 06:35:32;;;;;;;16.13;10.83;;;16.60;99.90;;;;;;5029015;28;20548;-71
2021/09/07 06:37:58;;;;;;;16.83;10.50;;;16.70;99.90;;;;;;5031573;28;20537;-71
2021/09/07 06:40:23;;;;;;;18.30;11.10;;;16.70;99.90;;;;;;5026793;28;20198;-71
2021/09/07 06:42:50;;;;;;;13.93;9.90;;;16.80;99.90;;;;;;5033449;28;20160;-71
2021/09/07 06:45:16;;;;;;;13.70;10.60;;;16.80;99.90;;;;;;5029440;28;20196;-72
2021/09/07 06:47:41;;;;;;;15.10;10.17;;;16.90;99.90;;;;;;5019918;28;20431;-71
2021/09/07 06:50:08;;;;;;;18.10;10.57;;;16.90;99.90;;;;;;5026662;28;20439;-71
2021/09/07 06:52:34;;;;;;;15.53;10.63;;;17.00;99.90;;;;;;5029717;28;20185;-71
2021/09/07 06:54:59;;;;;;;18.00;11.57;;;17.10;99.90;;;;;;5027528;28;20486;-71
2021/09/07 06:57:26;;;;;;;15.43;9.83;;;17.10;99.90;;;;;;5033297;28;20541;-71
2021/09/07 06:59:53;;;;;;;14.13;9.90;;;17.20;99.90;;;;;;5037310;28;20569;-71
2021/09/07 07:02:19;;;;;;;13.83;10.70;;;17.30;99.90;;;;;;5030813;28;20447;-71
2021/09/07 07:04:45;;;;;;;16.27;10.70;;;17.30;99.90;;;;;;5020335;28;20469;-71
2021/09/07 07:07:11;;;;;;;22.00;11.83;;;17.40;99.90;;;;;;5033495;28;20853;-71
2021/09/07 07:09:37;;;;;;;17.60;11.77;;;17.60;99.90;;;;;;5031929;28;20193;-71
2021/09/07 07:12:02;;;;;;;15.77;11.40;;;17.60;99.90;;;;;;5031708;28;20490;-71
2021/09/07 07:14:28;;;;;;;13.80;10.20;;;17.70;99.90;;;;;;5053119;28;20160;-71
2021/09/07 07:16:54;;;;;;;13.37;10.60;;;17.80;99.90;;;;;;5032451;28;20431;-71
2021/09/07 07:19:19;;;;;;;15.30;10.37;;;17.80;99.90;;;;;;5032453;28;20212;-71
2021/09/07 07:21:47;;;;;;;18.60;10.77;;;17.90;99.90;;;;;;5026112;28;20225;-71
2021/09/07 07:24:14;;;;;;;15.40;11.00;;;18.00;99.90;;;;;;5026482;28;20256;-72
2021/09/07 07:26:40;;;;;;;19.30;12.30;;;18.00;99.90;;;;;;5034628;28;20427;-73
2021/09/07 07:29:06;;;;;;;18.83;11.40;;;18.10;99.90;;;;;;5029759;28;20442;-71
2021/09/07 07:31:32;;;;;;;16.63;12.07;;;18.10;99.90;;;;;;5021498;28;20184;-71
2021/09/07 07:33:58;;;;;;;17.80;11.30;;;18.20;99.90;;;;;;5031367;28;20255;-71
2021/09/07 07:36:23;;;;;;;16.33;10.30;;;18.30;99.90;;;;;;5029153;28;20427;-71
2021/09/07 07:38:49;;;;;;;20.53;12.00;;;18.40;99.90;;;;;;5023242;28;20251;-71
2021/09/07 07:41:14;;;;;;;16.23;11.23;;;18.40;99.90;;;;;;5032123;28;20201;-71
2021/09/07 07:43:44;;;;;;;18.30;11.57;;;18.50;99.90;;;;;;5021122;28;20177;-72
2021/09/07 07:46:10;;;;;;;13.13;10.23;;;18.60;99.90;;;;;;5029703;28;20173;-71
2021/09/07 07:48:36;;;;;;;18.60;12.03;;;18.70;99.90;;;;;;5018073;28;20801;-72
2021/09/07 07:51:02;;;;;;;17.83;12.70;;;18.80;99.90;;;;;;5027559;28;20431;-71
2021/09/07 07:53:27;;;;;;;19.97;11.27;;;19.00;99.90;;;;;;5026710;28;20589;-71
2021/09/07 07:55:53;;;;;;;15.50;11.80;;;19.10;99.90;;;;;;5026598;28;20315;-71
2021/09/07 07:58:19;;;;;;;18.83;12.83;;;19.20;99.90;;;;;;5032932;28;21167;-71
2021/09/07 08:00:46;;;;;;;19.53;13.20;;;19.30;99.90;;;;;;5021588;28;20310;-71
2021/09/07 08:03:12;;;;;;;15.33;10.90;;;19.40;99.90;;;;;;5028619;28;20208;-71
2021/09/07 08:05:38;;;;;;;18.03;11.07;;;19.50;99.90;;;;;;5032326;28;20697;-71
2021/09/07 08:08:04;;;;;;;20.10;12.10;;;19.60;99.90;;;;;;5032043;28;20388;-71
2021/09/07 08:10:30;;;;;;;16.80;11.27;;;19.70;99.90;;;;;;5030792;28;20437;-71
2021/09/07 08:12:55;;;;;;;20.83;12.27;;;19.80;99.90;;;;;;5032111;28;20900;-71
2021/09/07 08:15:21;;;;;;;17.17;9.90;;;19.90;99.90;;;;;;5029198;28;20666;-71
2021/09/07 08:17:49;;;;;;;16.77;10.40;;;20.10;99.90;;;;;;5027361;28;20211;-72
2021/09/07 08:20:15;;;;;;;20.10;11.77;;;20.20;99.90;;;;;;5029222;28;20197;-72
2021/09/07 08:22:40;;;;;;;15.80;12.00;;;20.30;99.90;;;;;;5030771;28;20457;-71
2021/09/07 08:25:06;;;;;;;17.67;11.93;;;20.40;99.90;;;;;;5024040;28;20204;-71
2021/09/07 08:27:32;;;;;;;16.17;11.00;;;20.50;99.90;;;;;;5031759;28;20164;-71
2021/09/07 08:29:57;;;;;;;21.37;12.43;;;20.60;99.90;;;;;;5030978;28;20962;-71
2021/09/07 08:32:23;;;;;;;16.40;10.47;;;20.70;99.90;;;;;;5029491;28;20288;-71
2021/09/07 08:34:48;;;;;;;19.43;11.07;;;20.80;99.90;;;;;;5029266;28;20542;-72
2021/09/07 08:37:14;;;;;;;15.43;11.40;;;20.90;99.90;;;;;;5034356;28;20642;-72
2021/09/07 08:39:40;;;;;;;16.73;10.20;;;21.00;99.90;;;;;;5034141;28;20192;-72
2021/09/07 08:42:11;;;;;;;19.17;11.50;;;21.10;99.90;;;;;;5036963;28;20211;-72
2021/09/07 08:44:37;;;;;;;17.37;10.97;;;21.30;99.90;;;;;;5035747;28;20160;-71
2021/09/07 08:47:03;;;;;;;14.67;11.17;;;21.30;99.90;;;;;;5035656;28;20403;-72
2021/09/07 08:49:28;;;;;;;12.27;9.70;;;21.50;99.90;;;;;;5028768;28;20912;-72
2021/09/07 08:51:54;;;;;;;16.50;9.70;;;21.60;99.90;;;;;;5035596;28;20434;-72
2021/09/07 08:54:19;;;;;;;16.20;10.13;;;21.80;99.90;;;;;;5036007;28;20211;-72
2021/09/07 08:56:45;;;;;;;13.70;9.33;;;21.90;99.90;;;;;;5035006;28;20584;-73
2021/09/07 08:59:12;;;;;;;11.83;8.60;;;22.00;99.90;;;;;;5034456;28;20563;-72
2021/09/07 09:01:40;;;;;;;11.27;8.30;;;22.00;99.90;;;;;;5027622;28;20227;-72
2021/09/07 09:04:23;;;;;;;13.13;8.93;;;22.10;99.90;;;;;;5026805;28;20458;-72
2021/09/07 09:06:49;;;;;;;13.40;9.07;;;22.20;99.90;;;;;;5031948;28;20517;-72
2021/09/07 09:09:15;;;;;;;10.17;8.03;;;22.20;99.90;;;;;;5034766;28;20483;-72
2021/09/07 09:11:57;;;;;;;10.70;7.77;;;22.30;99.90;;;;;;5032200;28;20872;-72
2021/09/07 09:20:03;;;;;;;13.40;8.37;;;22.60;99.90;;;;;;5063928;28;21099;-72
2021/09/07 09:22:48;;;;;;;12.53;8.10;;;22.80;99.90;;;;;;5047549;28;20438;-72
2021/09/07 09:30:38;;;;;;;10.30;7.93;;;22.90;99.90;;;;;;5060794;28;20560;-71
2021/09/07 09:33:05;;;;;;;11.87;8.83;;;23.30;99.90;;;;;;5066919;28;20492;-71
2021/09/07 09:35:32;;;;;;;16.60;7.77;;;23.70;99.90;;;;;;5066581;28;20496;-71
2021/09/07 09:38:02;;;;;;;12.60;8.57;;;23.80;99.90;;;;;;5067267;28;20506;-71
2021/09/07 09:40:29;;;;;;;13.83;7.20;;;23.90;99.90;;;;;;5069263;28;20405;-71
2021/09/07 09:42:57;;;;;;;11.77;7.70;;;23.90;99.90;;;;;;5065088;28;20426;-71
2021/09/07 09:45:31;;;;;;;11.43;7.40;;;24.00;99.90;;;;;;5068928;28;20401;-71
2021/09/07 09:47:57;;;;;;;13.23;8.13;;;24.00;99.90;;;;;;5062152;28;20451;-71
2021/09/07 09:50:25;;;;;;;9.13;7.00;;;24.10;99.90;;;;;;5065238;28;20461;-71
2021/09/07 09:52:51;;;;;;;15.73;8.50;;;24.20;99.90;;;;;;5065941;28;20163;-71
2021/09/07 09:55:18;;;;;;;11.17;7.83;;;24.20;98.60;;;;;;5058518;28;20489;-71
2021/09/07 09:57:44;;;;;;;15.10;7.90;;;24.20;98.40;;;;;;5057944;28;20426;-71
2021/09/07 10:00:12;;;;;;;11.43;8.50;;;24.20;96.30;;;;;;5052638;28;20457;-71
2021/09/07 10:02:37;;;;;;;12.00;7.50;;;24.20;95.80;;;;;;5056963;28;20488;-71
2021/09/07 10:05:04;;;;;;;9.40;6.93;;;24.10;95.90;;;;;;5058747;28;20493;-72
2021/09/07 10:07:29;;;;;;;9.53;6.97;;;24.20;96.60;;;;;;5058540;28;20419;-71
2021/09/07 10:09:57;;;;;;;8.70;6.53;;;24.30;96.40;;;;;;5057774;28;20445;-71
2021/09/07 10:12:28;;;;;;;11.00;7.23;;;24.40;96.90;;;;;;5059151;28;20254;-71
2021/09/07 10:15:04;;;;;;;10.30;6.80;;;24.50;96.20;;;;;;5056639;28;20429;-71
2021/09/07 10:17:34;;;;;;;8.60;6.13;;;24.50;96.90;;;;;;5054862;28;20503;-71
2021/09/07 10:20:10;;;;;;;9.07;7.17;;;24.60;95.80;;;;;;5057911;28;20460;-71
2021/09/07 10:25:52;;;;;;;10.60;7.43;;;24.60;98.30;;;;;;5057695;28;20651;-72
2021/09/07 10:28:40;;;;;;;7.57;6.60;;;24.60;97.40;;;;;;5035977;28;20419;-72
2021/09/07 10:33:55;;;;;;;8.43;7.53;;;24.70;98.60;;;;;;5062570;28;20556;-72
2021/09/07 10:36:23;;;;;;;12.57;7.10;;;24.80;97.00;;;;;;5045465;28;20457;-72
2021/09/07 10:38:52;;;;;;;10.80;6.73;;;24.80;96.60;;;;;;5040966;28;20427;-72
2021/09/07 10:47:15;;;;;;;11.90;6.30;;;24.90;97.30;;;;;;5067729;28;20519;-72
2021/09/07 10:49:53;;;;;;;10.80;6.43;;;24.90;97.00;;;;;;5062702;28;20421;-72
2021/09/07 11:00:26;;;;;;;10.03;6.30;;;25.00;96.90;;;;;;5058340;28;20568;-72
2021/09/07 11:10:58;;;;;;;9.37;6.17;;;24.80;94.40;;;;;;5056262;28;20554;-72
2021/09/07 11:13:26;;;;;;;9.63;6.80;;;24.70;96.40;;;;;;5049505;28;20852;-72
2021/09/07 11:15:54;;;;;;;9.60;7.63;;;24.60;95.60;;;;;;5051115;28;20612;-72
2021/09/07 11:21:04;;;;;;;9.97;6.17;;;24.60;96.70;;;;;;5069603;28;20539;-72
2021/09/07 11:23:32;;;;;;;11.70;6.57;;;24.40;96.70;;;;;;5066666;28;20836;-71
2021/09/07 11:26:02;;;;;;;11.33;7.60;;;24.20;97.40;;;;;;5066698;28;20428;-71
2021/09/07 11:28:28;;;;;;;9.93;7.80;;;24.20;98.00;;;;;;5062034;28;20416;-72
2021/09/07 11:30:55;;;;;;;9.00;7.07;;;24.10;98.10;;;;;;5070140;28;20402;-71
2021/09/07 11:33:22;;;;;;;8.73;7.27;;;24.00;97.50;;;;;;5069006;28;20400;-71
2021/09/07 11:35:50;;;;;;;10.47;7.50;;;23.90;97.80;;;;;;5063202;28;20451;-72
2021/09/07 11:38:20;;;;;;;10.30;6.80;;;23.80;98.40;;;;;;5064036;28;20438;-72
2021/09/07 11:40:48;;;;;;;10.30;7.00;;;23.70;99.40;;;;;;5067321;28;20821;-72
2021/09/07 11:43:25;;;;;;;9.03;7.20;;;23.70;99.90;;;;;;5068061;28;20410;-72
2021/09/07 11:46:03;;;;;;;9.80;6.37;;;23.50;99.80;;;;;;5065388;28;20422;-71
2021/09/07 11:48:29;;;;;;;8.17;6.73;;;23.50;98.50;;;;;;5067290;28;20447;-71
2021/09/07 11:50:54;;;;;;;8.17;5.53;;;23.40;98.40;;;;;;5068259;28;20422;-71
2021/09/07 11:53:20;;;;;;;10.60;6.27;;;23.30;98.20;;;;;;5068469;28;20175;-71
2021/09/07 11:55:48;;;;;;;7.90;6.03;;;23.30;97.80;;;;;;5065776;28;20633;-71
2021/09/07 11:58:27;;;;;;;8.33;6.30;;;23.20;98.50;;;;;;5051201;28;20179;-72
2021/09/07 12:08:54;;;;;;;8.47;5.73;;;22.90;97.10;;;;;;5089412;27;20534;-72
2021/09/07 12:14:04;;;;;;;9.03;5.50;;;22.90;98.70;;;;;;5068793;28;20519;-72
2021/09/07 12:16:29;;;;;;;7.07;5.17;;;22.70;98.20;;;;;;5068925;28;20452;-72
2021/09/07 12:18:55;;;;;;;6.93;5.20;;;22.70;96.80;;;;;;5043454;28;20917;-72
2021/09/07 12:21:25;;;;;;;6.27;5.23;;;22.80;96.00;;;;;;5037059;28;20164;-72
2021/09/07 12:23:53;;;;;;;7.73;6.10;;;22.80;97.80;;;;;;5043196;28;20172;-72
2021/09/07 12:26:36;;;;;;;8.23;5.73;;;22.80;98.10;;;;;;5055406;28;20415;-72
2021/09/07 12:29:18;;;;;;;6.63;5.37;;;22.80;98.70;;;;;;5064825;28;20425;-72
2021/09/07 12:31:45;;;;;;;9.77;6.17;;;22.80;99.90;;;;;;5046526;28;20419;-72
2021/09/07 12:34:18;;;;;;;7.57;5.87;;;22.70;98.00;;;;;;5049368;28;20769;-72
2021/09/07 12:36:47;;;;;;;7.73;5.90;;;22.70;97.80;;;;;;5039145;28;20414;-72
2021/09/07 12:39:13;;;;;;;7.20;5.27;;;22.70;99.90;;;;;;5030914;28;20470;-72
2021/09/07 12:41:39;;;;;;;7.10;5.50;;;22.70;98.10;;;;;;5031360;28;20416;-72
2021/09/07 12:44:05;;;;;;;7.67;6.70;;;22.70;98.10;;;;;;5036179;28;20951;-72
2021/09/07 12:46:31;;;;;;;8.00;5.50;;;22.70;98.00;;;;;;5041105;28;20901;-72
2021/09/07 12:48:56;;;;;;;8.37;5.73;;;22.70;98.50;;;;;;5045445;28;20650;-72
2021/09/07 12:51:23;;;;;;;8.27;6.00;;;22.70;98.60;;;;;;5040087;28;20573;-72
2021/09/07 12:53:57;;;;;;;8.97;6.17;;;22.70;98.80;;;;;;5042547;28;20219;-72
2021/09/07 12:56:22;;;;;;;7.73;6.20;;;22.70;99.10;;;;;;5029997;28;20426;-72
2021/09/07 12:58:52;;;;;;;8.03;6.40;;;22.70;99.20;;;;;;5036514;28;20944;-72
2021/09/07 13:01:20;;;;;;;7.13;6.27;;;22.80;98.50;;;;;;5031497;28;20529;-72
2021/09/07 13:03:46;;;;;;;6.73;5.90;;;22.90;99.00;;;;;;5033747;28;20407;-71
2021/09/07 13:06:14;;;;;;;10.80;5.30;;;22.80;99.90;;;;;;5036794;28;20442;-71
2021/09/07 13:08:39;;;;;;;8.07;6.00;;;22.70;99.90;;;;;;5036121;28;20986;-71
2021/09/07 13:11:05;;;;;;;10.50;6.40;;;22.60;99.90;;;;;;5039910;28;20419;-71
2021/09/07 13:13:31;;;;;;;11.80;6.50;;;22.50;99.90;;;;;;5032938;28;20203;-71
2021/09/07 13:15:58;;;;;;;7.07;5.70;;;22.40;99.90;;;;;;5043880;28;20179;-71
2021/09/07 13:18:25;;;;;;;9.70;6.60;;;22.40;99.90;;;;;;5039938;28;20624;-71
2021/09/07 13:20:50;;;;;;;8.80;7.17;;;22.40;99.90;;;;;;5035914;28;20778;-71
2021/09/07 13:23:16;;;;;;;7.97;5.67;;;22.40;99.90;;;;;;5033411;28;20426;-71
2021/09/07 13:25:42;;;;;;;9.90;6.40;;;22.40;99.90;;;;;;5019169;28;20635;-71